Clough, Minnesota
Current Conditions -  °F | °C
As of 6:39 PM on Thursday 18 Dec 2014 (Local Time) from KLXL Reporting Station
Broken Clouds Broken Clouds  
Wind Chill: 19°   Ceiling: 1700
Heat Index: 19°   Visibility: 10mi
Dew Point: 14°   Wind: 0mph
Humidity: 80%   Direction: NA
Pressure: 30.23"   Gusts: NA
Location:  46.0639°N, 94.5189°W
Report Text: KLXL 190039Z AUTO 00000KT 10SM BKN017 M07/M10 A3023 RMK AO2
Loading
Personal Weather Stations






























Interactive Weather Map New forecast layout! Learn more

10-Day Weather Forecast

Advertisements
Track Severe Weather on mobile